Time,TemperatureF,DewpointF,PressureIn,WindDirection,WindDirectionDegrees,WindSpeedMPH,WindSpeedGustMPH,Humidity,HourlyPrecipIn,Conditions,Clouds,dailyrainin,SoftwareType,DateUTC
2013-05-21 00:00:00,65.8,60.8,29.62,South,185,1.0,13.0,84,0.00,,SCT250,0.00,VWS V14.01,2013-05-21 05:00:00,
2013-05-21 00:01:00,67.0,61.3,29.62,South,169,0.0,13.0,82,0.00,,OVC095,0.00,VWS V14.01,2013-05-21 05:01:00,
2013-05-21 00:05:00,67.4,60.7,29.61,SSE,150,6.0,9.0,79,0.01,,SCT250,0.01,VWS V14.01,2013-05-21 05:05:00,
2013-05-21 00:06:00,67.1,60.7,29.60,SSE,150,5.0,11.0,80,0.01,,OVC095,0.01,VWS V14.01,2013-05-21 05:06:00,
2013-05-21 00:10:00,66.8,60.8,29.60,SSE,158,4.0,11.0,81,0.01,,SCT250,0.01,VWS V14.01,2013-05-21 05:10:00,
2013-05-21 00:11:00,66.9,61.9,29.60,SSE,161,0.0,9.0,84,0.02,,OVC095,0.02,VWS V14.01,2013-05-21 05:11:00,
2013-05-21 00:15:00,66.7,61.4,29.60,ESE,123,4.0,11.0,83,0.02,,SCT250,0.02,VWS V14.01,2013-05-21 05:15:00,
2013-05-21 00:16:00,65.8,59.5,29.61,SE,140,1.0,11.0,80,0.02,,OVC095,0.02,VWS V14.01,2013-05-21 05:16:00,
2013-05-21 00:20:00,65.1,59.1,29.61,SE,126,6.0,8.0,81,0.03,,SCT250,0.03,VWS V14.01,2013-05-21 05:20:00,
2013-05-21 00:21:00,64.4,59.5,29.61,SSE,148,0.0,8.0,84,0.04,,OVC095,0.04,VWS V14.01,2013-05-21 05:21:00,
2013-05-21 00:25:00,64.4,60.5,29.61,SSE,165,0.0,3.0,87,0.04,,SCT250,0.04,VWS V14.01,2013-05-21 05:25:00,
2013-05-21 00:26:00,64.7,61.1,29.61,SSE,161,3.0,7.0,88,0.05,,OVC095,0.05,VWS V14.01,2013-05-21 05:26:00,
2013-05-21 00:30:00,65.0,61.7,29.62,SSE,168,1.0,8.0,89,0.06,,SCT250,0.06,VWS V14.01,2013-05-21 05:30:00,
2013-05-21 00:31:00,65.7,62.4,29.62,South,178,9.0,11.0,89,0.07,,OVC095,0.07,VWS V14.01,2013-05-21 05:31:00,
2013-05-21 00:35:00,66.1,62.8,29.62,SSE,147,3.0,13.0,89,0.08,,SCT250,0.08,VWS V14.01,2013-05-21 05:35:00,
2013-05-21 00:36:00,66.4,62.7,29.62,South,178,12.0,16.0,88,0.09,,OVC095,0.09,VWS V14.01,2013-05-21 05:36:00,
2013-05-21 00:40:00,66.7,63.0,29.62,North,360,5.0,16.0,88,0.09,,SCT250,0.09,VWS V14.01,2013-05-21 05:40:00,
2013-05-21 00:41:00,67.0,63.0,29.62,South,184,13.0,21.0,87,0.11,,OVC095,0.11,VWS V14.01,2013-05-21 05:41:00,
2013-05-21 00:45:00,67.2,63.2,29.62,North,360,20.0,24.0,87,0.12,,SCT250,0.12,VWS V14.01,2013-05-21 05:45:00,
2013-05-21 00:46:00,67.3,63.3,29.62,South,190,15.0,24.0,87,0.13,,OVC095,0.13,VWS V14.01,2013-05-21 05:46:00,
2013-05-21 00:50:00,67.3,63.3,29.62,North,360,13.0,24.0,87,0.14,,SCT250,0.14,VWS V14.01,2013-05-21 05:50:00,
2013-05-21 00:52:00,67.3,62.6,29.62,SSE,155,7.0,23.0,85,0.15,,OVC095,0.15,VWS V14.01,2013-05-21 05:52:00,
2013-05-21 00:55:00,67.3,62.6,29.62,SSW,211,11.0,23.0,85,0.15,,SCT250,0.15,VWS V14.01,2013-05-21 05:55:00,
2013-05-21 00:57:00,67.2,62.5,29.61,North,360,16.0,18.0,85,0.16,,OVC095,0.16,VWS V14.01,2013-05-21 05:57:00,
2013-05-21 01:00:00,67.1,62.5,29.61,SSW,198,13.0,18.0,85,0.16,,SCT250,0.16,VWS V14.01,2013-05-21 06:00:00,
2013-05-21 01:02:00,67.0,62.7,29.61,SSW,209,4.0,18.0,86,0.16,,-RA,0.16,VWS V14.01,2013-05-21 06:02:00,
2013-05-21 01:05:00,66.9,62.6,29.61,SW,236,4.0,16.0,86,0.16,,SCT250,0.16,VWS V14.01,2013-05-21 06:05:00,
2013-05-21 01:07:00,66.8,62.5,29.60,SSW,198,3.0,14.0,86,0.16,,-RA,0.17,VWS V14.01,2013-05-21 06:07:00,
2013-05-21 01:10:00,66.7,62.7,29.60,SW,214,2.0,11.0,87,0.16,,FEW250,0.17,VWS V14.01,2013-05-21 06:10:00,
2013-05-21 01:12:00,66.5,62.8,29.60,South,184,1.0,6.0,88,0.16,,-RA,0.17,VWS V14.01,2013-05-21 06:12:00,
2013-05-21 01:15:00,66.4,62.7,29.60,SSW,212,4.0,6.0,88,0.16,,SCT250,0.17,VWS V14.01,2013-05-21 06:15:00,
2013-05-21 01:17:00,66.3,62.6,29.60,SSW,205,6.0,9.0,88,0.15,,-RA,0.17,VWS V14.01,2013-05-21 06:17:00,
2013-05-21 01:20:00,66.2,62.5,29.60,South,186,1.0,11.0,88,0.16,,FEW250,0.18,VWS V14.01,2013-05-21 06:20:00,
2013-05-21 01:22:00,66.2,62.9,29.59,North,360,4.0,6.0,89,0.15,,-RA,0.18,VWS V14.01,2013-05-21 06:22:00,
2013-05-21 01:25:00,66.1,62.8,29.59,SW,226,7.0,7.0,89,0.15,,SCT250,0.18,VWS V14.01,2013-05-21 06:25:00,
2013-05-21 01:27:00,66.1,62.8,29.59,SSW,204,0.0,7.0,89,0.14,,-RA,0.18,VWS V14.01,2013-05-21 06:27:00,
2013-05-21 01:30:00,66.1,62.8,29.59,SSW,213,0.0,6.0,89,0.14,,FEW250,0.18,VWS V14.01,2013-05-21 06:30:00,
2013-05-21 01:32:00,66.1,62.8,29.59,SW,215,0.0,0.0,89,0.12,,-RA,0.18,VWS V14.01,2013-05-21 06:32:00,
2013-05-21 01:35:00,66.0,63.0,29.59,SW,227,0.0,4.0,90,0.12,,SCT250,0.18,VWS V14.01,2013-05-21 06:35:00,
2013-05-21 01:37:00,65.9,62.9,29.58,North,360,5.0,6.0,90,0.10,,-RA,0.18,VWS V14.01,2013-05-21 06:37:00,
2013-05-21 01:40:00,65.9,62.9,29.58,SW,223,0.0,6.0,90,0.10,,SCT250,0.18,VWS V14.01,2013-05-21 06:40:00,
2013-05-21 01:42:00,65.8,62.8,29.58,SSW,207,6.0,9.0,90,0.09,,-RA,0.18,VWS V14.01,2013-05-21 06:42:00,
2013-05-21 01:45:00,65.8,62.8,29.58,South,189,3.0,9.0,90,0.09,,SCT250,0.18,VWS V14.01,2013-05-21 06:45:00,
2013-05-21 01:47:00,65.8,62.8,29.58,SSW,194,0.0,7.0,90,0.06,,-RA,0.18,VWS V14.01,2013-05-21 06:47:00,
2013-05-21 01:50:00,65.8,62.8,29.58,SSW,202,0.0,7.0,90,0.06,,SCT250,0.18,VWS V14.01,2013-05-21 06:50:00,
2013-05-21 01:52:00,66.0,63.0,29.58,South,178,2.0,9.0,90,0.04,,-RA,0.18,VWS V14.01,2013-05-21 06:52:00,
2013-05-21 01:55:00,66.0,62.7,29.58,SSW,198,5.0,9.0,89,0.04,,SCT250,0.18,VWS V14.01,2013-05-21 06:55:00,
2013-05-21 01:57:00,66.2,62.9,29.58,SSW,196,0.0,11.0,89,0.03,,-RA,0.18,VWS V14.01,2013-05-21 06:57:00,
2013-05-21 02:00:00,66.2,62.9,29.58,South,187,0.0,11.0,89,0.03,,SCT250,0.18,VWS V14.01,2013-05-21 07:00:00,
2013-05-21 02:02:00,66.3,63.0,29.58,South,169,0.0,1.0,89,0.02,,OVC200,0.18,VWS V14.01,2013-05-21 07:02:00,
2013-05-21 02:05:00,66.3,63.0,29.58,South,169,0.0,1.0,89,0.02,,SCT250,0.18,VWS V14.01,2013-05-21 07:05:00,
2013-05-21 02:08:00,66.1,62.5,29.58,SSE,168,0.0,0.0,88,0.02,,OVC200,0.18,VWS V14.01,2013-05-21 07:08:00,
2013-05-21 02:10:00,65.9,62.2,29.58,SSE,168,0.0,0.0,88,0.02,,SCT250,0.18,VWS V14.01,2013-05-21 07:10:00,
2013-05-21 02:13:00,65.3,62.0,29.58,ESE,122,0.0,5.0,89,0.01,,OVC200,0.18,VWS V14.01,2013-05-21 07:13:00,
2013-05-21 02:15:00,65.2,61.9,29.57,ESE,108,0.0,5.0,89,0.01,,SCT250,0.18,VWS V14.01,2013-05-21 07:15:00,
2013-05-21 02:18:00,61.8,56.6,29.57,SE,145,6.0,11.0,83,0.01,,OVC200,0.18,VWS V14.01,2013-05-21 07:18:00,
2013-05-21 02:20:00,61.2,56.3,29.57,SE,141,7.0,11.0,84,0.01,,SCT250,0.18,VWS V14.01,2013-05-21 07:20:00,
2013-05-21 02:23:00,58.0,53.8,29.58,ESE,113,2.0,10.0,86,0.00,,OVC200,0.18,VWS V14.01,2013-05-21 07:23:00,
2013-05-21 02:25:00,57.7,53.9,29.57,SE,136,3.0,10.0,87,0.00,,SCT250,0.18,VWS V14.01,2013-05-21 07:25:00,
2013-05-21 02:28:00,57.9,56.2,29.58,SE,143,2.0,11.0,94,0.00,,OVC200,0.18,VWS V14.01,2013-05-21 07:28:00,
2013-05-21 02:30:00,58.2,56.5,29.58,SE,145,1.0,11.0,94,0.00,,SCT250,0.18,VWS V14.01,2013-05-21 07:30:00,
2013-05-21 02:33:00,60.2,59.1,29.58,SE,130,1.0,7.0,96,0.00,,OVC200,0.18,VWS V14.01,2013-05-21 07:33:00,
2013-05-21 02:35:00,60.2,59.1,29.58,SE,145,0.0,7.0,96,0.00,,SCT250,0.18,VWS V14.01,2013-05-21 07:35:00,
2013-05-21 02:38:00,60.9,59.8,29.57,SE,132,0.0,5.0,96,0.00,,OVC200,0.18,VWS V14.01,2013-05-21 07:38:00,
2013-05-21 02:40:00,60.9,59.8,29.57,ESE,119,3.0,7.0,96,0.00,,SCT250,0.18,VWS V14.01,2013-05-21 07:40:00,
2013-05-21 02:43:00,59.3,57.3,29.58,SE,130,6.0,9.0,93,0.00,,OVC200,0.18,VWS V14.01,2013-05-21 07:43:00,
2013-05-21 02:45:00,59.0,57.3,29.58,SE,132,3.0,9.0,94,0.00,,SCT250,0.18,VWS V14.01,2013-05-21 07:45:00,
2013-05-21 02:48:00,58.6,56.9,29.57,SE,137,4.0,9.0,94,0.00,,OVC200,0.18,VWS V14.01,2013-05-21 07:48:00,
2013-05-21 02:50:00,58.5,56.8,29.57,SE,134,6.0,9.0,94,0.00,,SCT250,0.18,VWS V14.01,2013-05-21 07:50:00,
2013-05-21 02:53:00,58.2,56.8,29.57,SE,133,4.0,9.0,95,0.00,,OVC200,0.18,VWS V14.01,2013-05-21 07:53:00,
2013-05-21 02:55:00,58.2,56.8,29.57,SE,128,6.0,9.0,95,0.00,,SCT250,0.18,VWS V14.01,2013-05-21 07:55:00,
2013-05-21 02:58:00,57.4,55.7,29.57,ESE,112,3.0,9.0,94,0.00,,OVC200,0.18,VWS V14.01,2013-05-21 07:58:00,
2013-05-21 03:00:00,57.4,55.7,29.57,SE,135,7.0,10.0,94,0.00,,SCT250,0.18,VWS V14.01,2013-05-21 08:00:00,
2013-05-21 03:03:00,56.9,55.5,29.57,SE,130,2.0,8.0,95,0.00,,OVC180,0.18,VWS V14.01,2013-05-21 08:03:00,
2013-05-21 03:05:00,56.9,55.5,29.57,ESE,119,2.0,8.0,95,0.00,,SCT250,0.18,VWS V14.01,2013-05-21 08:05:00,
2013-05-21 03:08:00,56.6,55.2,29.56,SE,134,0.0,7.0,95,0.00,,OVC180,0.18,VWS V14.01,2013-05-21 08:08:00,
2013-05-21 03:10:00,56.6,55.2,29.56,SE,136,0.0,7.0,95,0.00,,SCT250,0.18,VWS V14.01,2013-05-21 08:10:00,
2013-05-21 03:13:00,56.8,55.7,29.56,ESE,115,1.0,4.0,96,0.00,,OVC180,0.18,VWS V14.01,2013-05-21 08:13:00,
2013-05-21 03:15:00,56.8,55.7,29.56,ESE,115,1.0,4.0,96,0.00,,SCT250,0.18,VWS V14.01,2013-05-21 08:15:00,
2013-05-21 03:19:00,56.4,55.0,29.55,ESE,119,0.0,3.0,95,0.00,,OVC180,0.18,VWS V14.01,2013-05-21 08:19:00,
2013-05-21 03:20:00,56.4,55.0,29.55,ESE,119,0.0,3.0,95,0.00,,SCT250,0.18,VWS V14.01,2013-05-21 08:20:00,
2013-05-21 03:24:00,56.9,55.8,29.54,ESE,119,0.0,0.0,96,0.00,,OVC180,0.18,VWS V14.01,2013-05-21 08:24:00,
2013-05-21 03:25:00,56.9,55.8,29.54,ESE,119,0.0,0.0,96,0.00,,SCT250,0.18,VWS V14.01,2013-05-21 08:25:00,
2013-05-21 03:29:00,57.0,55.9,29.54,ESE,119,0.0,0.0,96,0.00,,OVC180,0.18,VWS V14.01,2013-05-21 08:29:00,
2013-05-21 03:30:00,57.0,55.9,29.54,ESE,119,0.0,0.0,96,0.00,,SCT250,0.18,VWS V14.01,2013-05-21 08:30:00,
2013-05-21 03:34:00,57.5,56.7,29.54,ESE,120,0.0,0.0,97,0.00,,OVC180,0.18,VWS V14.01,2013-05-21 08:34:00,
2013-05-21 03:35:00,57.3,56.2,29.54,ESE,119,0.0,0.0,96,0.00,,SCT250,0.18,VWS V14.01,2013-05-21 08:35:00,
2013-05-21 03:39:00,58.3,57.5,29.53,ESE,119,0.0,0.0,97,0.00,,OVC180,0.18,VWS V14.01,2013-05-21 08:39:00,
2013-05-21 03:44:00,58.6,57.8,29.53,ESE,120,0.0,0.0,97,0.00,,OVC180,0.18,VWS V14.01,2013-05-21 08:44:00,
2013-05-21 03:49:00,56.6,54.6,29.54,ESE,118,0.0,0.0,93,0.00,,OVC180,0.18,VWS V14.01,2013-05-21 08:49:00,
2013-05-21 03:54:00,55.4,54.3,29.54,ESE,120,0.0,0.0,96,0.00,,OVC180,0.18,VWS V14.01,2013-05-21 08:54:00,
2013-05-21 04:00:00,57.3,56.5,29.55,SW,222,5.0,5.0,97,0.00,,OVC180,0.18,VWS V14.01,2013-05-21 09:00:00,
2013-05-21 04:05:00,60.7,60.1,29.55,SSW,209,6.0,9.0,98,0.00,,OVC180,0.18,VWS V14.01,2013-05-21 09:05:00,
2013-05-21 04:10:00,62.8,62.2,29.55,SW,214,18.0,18.0,98,0.00,,OVC180,0.18,VWS V14.01,2013-05-21 09:10:00,
2013-05-21 04:15:00,63.6,63.0,29.55,SSW,205,9.0,19.0,98,0.00,,OVC180,0.18,VWS V14.01,2013-05-21 09:15:00,
2013-05-21 04:20:00,64.5,63.3,29.55,South,172,9.0,17.0,96,0.00,,OVC180,0.18,VWS V14.01,2013-05-21 09:20:00,
2013-05-21 04:25:00,65.3,62.6,29.55,SSE,157,5.0,22.0,91,0.00,,OVC180,0.18,VWS V14.01,2013-05-21 09:25:00,
2013-05-21 04:30:00,65.5,62.2,29.55,North,360,15.0,16.0,89,0.00,,OVC180,0.18,VWS V14.01,2013-05-21 09:30:00,
2013-05-21 04:35:00,65.6,62.0,29.55,South,190,10.0,15.0,88,0.00,,BKN180,0.18,VWS V14.01,2013-05-21 09:35:00,
2013-05-21 04:40:00,65.5,61.9,29.55,North,360,15.0,18.0,88,0.00,,BKN180,0.18,VWS V14.01,2013-05-21 09:40:00,
2013-05-21 04:45:00,65.4,61.8,29.55,SSE,155,8.0,14.0,88,0.00,,BKN180,0.18,VWS V14.01,2013-05-21 09:45:00,
2013-05-21 04:50:00,65.4,61.8,29.55,North,360,6.0,15.0,88,0.00,,BKN180,0.18,VWS V14.01,2013-05-21 09:50:00,
2013-05-21 04:55:00,65.4,61.4,29.55,North,360,5.0,15.0,87,0.00,,BKN180,0.18,VWS V14.01,2013-05-21 09:55:00,
2013-05-21 05:00:00,65.4,61.4,29.56,SSE,161,6.0,13.0,87,0.00,,SCT250,0.18,VWS V14.01,2013-05-21 10:00:00,
2013-05-21 05:01:00,65.4,61.4,29.56,SSE,163,4.0,14.0,87,0.00,,CLR,0.18,VWS V14.01,2013-05-21 10:01:00,
2013-05-21 05:05:00,65.4,61.4,29.56,North,360,10.0,14.0,87,0.00,,SCT250,0.18,VWS V14.01,2013-05-21 10:05:00,
2013-05-21 05:06:00,65.4,61.4,29.56,North,360,6.0,12.0,87,0.00,,CLR,0.18,VWS V14.01,2013-05-21 10:06:00,
2013-05-21 05:10:00,65.4,61.4,29.56,SSW,198,6.0,17.0,87,0.00,,SCT250,0.18,VWS V14.01,2013-05-21 10:10:00,
2013-05-21 05:11:00,65.3,61.3,29.56,SSW,200,6.0,17.0,87,0.00,,CLR,0.18,VWS V14.01,2013-05-21 10:11:00,
2013-05-21 05:15:00,65.4,61.1,29.56,North,360,4.0,16.0,86,0.00,,SCT250,0.18,VWS V14.01,2013-05-21 10:15:00,
2013-05-21 05:16:00,65.4,61.1,29.56,SSW,200,13.0,16.0,86,0.00,,CLR,0.18,VWS V14.01,2013-05-21 10:16:00,
2013-05-21 05:20:00,65.4,61.1,29.56,South,181,7.0,15.0,86,0.00,,SCT250,0.18,VWS V14.01,2013-05-21 10:20:00,
2013-05-21 05:21:00,65.4,61.1,29.56,SSW,196,2.0,15.0,86,0.00,,CLR,0.18,VWS V14.01,2013-05-21 10:21:00,
2013-05-21 05:25:00,65.3,61.0,29.56,South,183,2.0,15.0,86,0.00,,SCT250,0.18,VWS V14.01,2013-05-21 10:25:00,
2013-05-21 05:26:00,65.4,61.1,29.56,South,175,2.0,14.0,86,0.00,,CLR,0.18,VWS V14.01,2013-05-21 10:26:00,
2013-05-21 05:30:00,65.4,61.1,29.57,SSW,193,1.0,13.0,86,0.00,,SCT250,0.18,VWS V14.01,2013-05-21 10:30:00,
2013-05-21 05:31:00,65.3,61.0,29.57,SSW,211,7.0,11.0,86,0.00,,CLR,0.18,VWS V14.01,2013-05-21 10:31:00,
2013-05-21 05:35:00,65.3,61.0,29.57,South,185,8.0,11.0,86,0.00,,SCT250,0.18,VWS V14.01,2013-05-21 10:35:00,
2013-05-21 05:36:00,65.2,60.9,29.57,North,360,14.0,15.0,86,0.00,,CLR,0.18,VWS V14.01,2013-05-21 10:36:00,
2013-05-21 05:40:00,65.2,61.2,29.57,South,187,5.0,15.0,87,0.00,,SCT250,0.18,VWS V14.01,2013-05-21 10:40:00,
2013-05-21 05:41:00,65.2,61.2,29.57,North,360,8.0,14.0,87,0.00,,CLR,0.18,VWS V14.01,2013-05-21 10:41:00,
2013-05-21 05:45:00,65.2,61.2,29.57,South,182,7.0,14.0,87,0.00,,SCT250,0.18,VWS V14.01,2013-05-21 10:45:00,
2013-05-21 05:46:00,65.1,61.1,29.57,South,182,5.0,13.0,87,0.00,,CLR,0.18,VWS V14.01,2013-05-21 10:46:00,
2013-05-21 05:50:00,65.1,61.1,29.58,SSW,192,4.0,15.0,87,0.00,,SCT250,0.18,VWS V14.01,2013-05-21 10:50:00,
2013-05-21 05:51:00,65.0,61.0,29.57,South,187,6.0,15.0,87,0.00,,CLR,0.18,VWS V14.01,2013-05-21 10:51:00,
2013-05-21 05:55:00,65.0,61.0,29.57,South,190,8.0,12.0,87,0.00,,SCT250,0.18,VWS V14.01,2013-05-21 10:55:00,
2013-05-21 05:56:00,65.0,61.0,29.57,SSW,195,7.0,14.0,87,0.00,,CLR,0.18,VWS V14.01,2013-05-21 10:56:00,
2013-05-21 06:00:00,65.0,61.0,29.58,SSW,196,9.0,14.0,87,0.00,,SCT250,0.18,VWS V14.01,2013-05-21 11:00:00,
2013-05-21 06:01:00,65.0,61.0,29.58,South,178,3.0,13.0,87,0.00,,SCT200,0.18,VWS V14.01,2013-05-21 11:01:00,
2013-05-21 06:05:00,65.0,61.0,29.58,South,190,9.0,12.0,87,0.00,,SCT250,0.18,VWS V14.01,2013-05-21 11:05:00,
2013-05-21 06:06:00,64.9,60.9,29.58,SSW,209,4.0,14.0,87,0.00,,SCT200,0.18,VWS V14.01,2013-05-21 11:06:00,
2013-05-21 06:10:00,64.8,60.8,29.58,South,179,7.0,14.0,87,0.00,,SCT250,0.18,VWS V14.01,2013-05-21 11:10:00,
2013-05-21 06:11:00,64.8,60.8,29.58,South,178,5.0,19.0,87,0.00,,SCT200,0.18,VWS V14.01,2013-05-21 11:11:00,
2013-05-21 06:15:00,64.8,60.8,29.58,North,360,8.0,19.0,87,0.00,,SCT250,0.18,VWS V14.01,2013-05-21 11:15:00,
2013-05-21 06:17:00,64.8,60.8,29.58,SSW,207,11.0,14.0,87,0.00,,SCT200,0.18,VWS V14.01,2013-05-21 11:17:00,
2013-05-21 06:20:00,64.8,60.8,29.58,SSW,192,10.0,18.0,87,0.00,,SCT250,0.18,VWS V14.01,2013-05-21 11:20:00,
2013-05-21 06:22:00,64.9,61.3,29.58,South,169,2.0,16.0,88,0.00,,SCT200,0.18,VWS V14.01,2013-05-21 11:22:00,
2013-05-21 06:25:00,64.9,60.9,29.58,SSW,206,7.0,14.0,87,0.00,,SCT250,0.18,VWS V14.01,2013-05-21 11:25:00,
2013-05-21 06:27:00,64.9,60.9,29.58,SSW,204,13.0,14.0,87,0.00,,SCT200,0.18,VWS V14.01,2013-05-21 11:27:00,
2013-05-21 06:30:00,64.9,60.9,29.58,SSW,193,7.0,13.0,87,0.00,,SCT250,0.18,VWS V14.01,2013-05-21 11:30:00,
2013-05-21 06:32:00,64.9,60.9,29.58,SW,223,12.0,19.0,87,0.00,,SCT200,0.18,VWS V14.01,2013-05-21 11:32:00,
2013-05-21 06:35:00,65.0,61.0,29.58,SSW,192,3.0,19.0,87,0.00,,SCT250,0.18,VWS V14.01,2013-05-21 11:35:00,
2013-05-21 06:37:00,65.0,61.0,29.58,North,360,12.0,17.0,87,0.00,,SCT200,0.18,VWS V14.01,2013-05-21 11:37:00,
2013-05-21 06:40:00,65.1,61.1,29.58,SSW,209,6.0,17.0,87,0.00,,SCT250,0.18,VWS V14.01,2013-05-21 11:40:00,
2013-05-21 06:42:00,65.1,61.1,29.58,South,172,13.0,17.0,87,0.00,,SCT200,0.18,VWS V14.01,2013-05-21 11:42:00,
2013-05-21 06:45:00,65.1,61.1,29.58,SSW,206,12.0,17.0,87,0.00,,SCT250,0.18,VWS V14.01,2013-05-21 11:45:00,
2013-05-21 06:47:00,65.2,61.2,29.58,North,360,10.0,18.0,87,0.00,,SCT200,0.18,VWS V14.01,2013-05-21 11:47:00,
2013-05-21 06:50:00,65.2,61.2,29.58,SW,216,5.0,15.0,87,0.00,,SCT250,0.18,VWS V14.01,2013-05-21 11:50:00,
2013-05-21 06:52:00,65.3,61.3,29.58,North,360,7.0,17.0,87,0.00,,SCT200,0.18,VWS V14.01,2013-05-21 11:52:00,
2013-05-21 06:55:00,65.3,61.3,29.58,South,190,18.0,19.0,87,0.00,,SCT250,0.18,VWS V14.01,2013-05-21 11:55:00,
2013-05-21 06:57:00,65.4,61.4,29.58,SW,221,2.0,19.0,87,0.00,,SCT200,0.18,VWS V14.01,2013-05-21 11:57:00,
2013-05-21 07:00:00,65.5,61.5,29.58,SSW,200,6.0,13.0,87,0.00,,SCT250,0.18,VWS V14.01,2013-05-21 12:00:00,
2013-05-21 07:02:00,65.6,61.3,29.58,North,360,10.0,17.0,86,0.00,,SCT180,0.18,VWS V14.01,2013-05-21 12:02:00,
2013-05-21 07:05:00,65.6,61.3,29.58,SSW,201,12.0,17.0,86,0.00,,SCT250,0.18,VWS V14.01,2013-05-21 12:05:00,
2013-05-21 07:07:00,65.6,61.3,29.58,SW,227,6.0,16.0,86,0.00,,SCT180,0.18,VWS V14.01,2013-05-21 12:07:00,
2013-05-21 07:10:00,65.6,61.3,29.58,SW,224,6.0,13.0,86,0.00,,SCT250,0.18,VWS V14.01,2013-05-21 12:10:00,
2013-05-21 07:12:00,65.6,61.3,29.58,South,186,4.0,22.0,86,0.00,,SCT180,0.18,VWS V14.01,2013-05-21 12:12:00,
2013-05-21 07:15:00,65.6,61.3,29.58,South,188,16.0,18.0,86,0.00,,SCT250,0.18,VWS V14.01,2013-05-21 12:15:00,
2013-05-21 07:17:00,65.6,61.3,29.58,SSE,165,3.0,18.0,86,0.00,,SCT180,0.18,VWS V14.01,2013-05-21 12:17:00,
2013-05-21 07:20:00,65.7,61.4,29.58,WSW,239,11.0,16.0,86,0.00,,SCT250,0.18,VWS V14.01,2013-05-21 12:20:00,
2013-05-21 07:22:00,65.9,61.6,29.58,SW,222,10.0,15.0,86,0.00,,SCT180,0.18,VWS V14.01,2013-05-21 12:22:00,
2013-05-21 07:25:00,65.9,61.3,29.58,WSW,257,7.0,15.0,85,0.00,,SCT250,0.18,VWS V14.01,2013-05-21 12:25:00,
2013-05-21 07:27:00,66.0,61.4,29.58,SSW,205,0.0,19.0,85,0.00,,SCT180,0.18,VWS V14.01,2013-05-21 12:27:00,
2013-05-21 07:30:00,66.0,61.4,29.58,South,178,8.0,19.0,85,0.00,,SCT250,0.18,VWS V14.01,2013-05-21 12:30:00,
2013-05-21 07:32:00,66.2,61.6,29.58,SW,232,10.0,15.0,85,0.00,,BKN180,0.18,VWS V14.01,2013-05-21 12:32:00,
2013-05-21 07:35:00,66.2,61.6,29.58,West,270,9.0,15.0,85,0.00,,SCT250,0.18,VWS V14.01,2013-05-21 12:35:00,
2013-05-21 07:37:00,66.3,61.7,29.58,North,360,10.0,13.0,85,0.00,,BKN180,0.18,VWS V14.01,2013-05-21 12:37:00,
2013-05-21 07:40:00,66.3,61.7,29.58,SW,215,9.0,13.0,85,0.00,,SCT250,0.18,VWS V14.01,2013-05-21 12:40:00,
2013-05-21 07:43:00,66.5,61.9,29.58,North,360,3.0,15.0,85,0.00,,BKN180,0.18,VWS V14.01,2013-05-21 12:43:00,
2013-05-21 07:45:00,66.5,61.9,29.58,North,360,8.0,15.0,85,0.00,,SCT250,0.18,VWS V14.01,2013-05-21 12:45:00,
2013-05-21 07:48:00,66.7,61.7,29.58,North,360,10.0,18.0,84,0.00,,BKN180,0.18,VWS V14.01,2013-05-21 12:48:00,
2013-05-21 07:50:00,66.7,61.7,29.58,SW,227,1.0,18.0,84,0.00,,SCT250,0.18,VWS V14.01,2013-05-21 12:50:00,
2013-05-21 07:53:00,66.8,61.5,29.58,SW,220,7.0,19.0,83,0.00,,BKN180,0.18,VWS V14.01,2013-05-21 12:53:00,
2013-05-21 07:55:00,66.8,61.8,29.58,South,188,3.0,19.0,84,0.00,,SCT250,0.18,VWS V14.01,2013-05-21 12:55:00,
2013-05-21 07:58:00,66.9,61.6,29.58,South,184,11.0,14.0,83,0.00,,BKN180,0.18,VWS V14.01,2013-05-21 12:58:00,
2013-05-21 08:00:00,66.9,61.6,29.58,South,191,9.0,16.0,83,0.00,,SCT250,0.18,VWS V14.01,2013-05-21 13:00:00,
2013-05-21 08:03:00,66.8,61.5,29.58,SSW,210,9.0,17.0,83,0.00,,BKN180,0.18,VWS V14.01,2013-05-21 13:03:00,
2013-05-21 08:05:00,66.8,61.5,29.58,South,186,8.0,17.0,83,0.00,,SCT250,0.18,VWS V14.01,2013-05-21 13:05:00,
2013-05-21 08:08:00,67.1,61.8,29.57,SSW,209,3.0,13.0,83,0.00,,BKN180,0.18,VWS V14.01,2013-05-21 13:08:00,
2013-05-21 08:10:00,67.1,61.8,29.58,SW,221,8.0,12.0,83,0.00,,SCT250,0.18,VWS V14.01,2013-05-21 13:10:00,
2013-05-21 08:13:00,67.1,61.4,29.58,North,360,7.0,22.0,82,0.00,,BKN180,0.18,VWS V14.01,2013-05-21 13:13:00,
2013-05-21 08:15:00,67.1,61.4,29.58,SSW,196,9.0,22.0,82,0.00,,SCT250,0.18,VWS V14.01,2013-05-21 13:15:00,
2013-05-21 08:18:00,67.2,61.5,29.58,North,360,15.0,20.0,82,0.00,,BKN180,0.18,VWS V14.01,2013-05-21 13:18:00,
2013-05-21 08:20:00,67.2,61.5,29.58,South,184,14.0,20.0,82,0.00,,SCT250,0.18,VWS V14.01,2013-05-21 13:20:00,
2013-05-21 08:23:00,67.3,61.6,29.58,SW,225,5.0,18.0,82,0.00,,BKN180,0.18,VWS V14.01,2013-05-21 13:23:00,
2013-05-21 08:25:00,67.4,61.7,29.58,SSW,202,7.0,18.0,82,0.00,,SCT250,0.18,VWS V14.01,2013-05-21 13:25:00,
2013-05-21 08:28:00,67.6,61.9,29.59,South,177,4.0,22.0,82,0.00,,BKN180,0.18,VWS V14.01,2013-05-21 13:28:00,
2013-05-21 08:30:00,67.6,61.9,29.59,North,360,3.0,22.0,82,0.00,,SCT250,0.18,VWS V14.01,2013-05-21 13:30:00,
2013-05-21 08:33:00,68.3,62.2,29.59,SSW,212,7.0,14.0,81,0.00,,BKN180,0.18,VWS V14.01,2013-05-21 13:33:00,
2013-05-21 08:35:00,68.3,62.2,29.59,North,360,4.0,14.0,81,0.00,,SCT250,0.18,VWS V14.01,2013-05-21 13:35:00,
2013-05-21 08:38:00,68.1,61.7,29.59,South,171,15.0,18.0,80,0.00,,BKN180,0.18,VWS V14.01,2013-05-21 13:38:00,
2013-05-21 08:40:00,68.1,61.7,29.59,SSW,208,12.0,18.0,80,0.00,,SCT250,0.18,VWS V14.01,2013-05-21 13:40:00,
2013-05-21 08:43:00,67.6,61.6,29.59,SW,216,11.0,18.0,81,0.00,,BKN180,0.18,VWS V14.01,2013-05-21 13:43:00,
2013-05-21 08:45:00,67.6,61.6,29.59,North,360,9.0,18.0,81,0.00,,SCT250,0.18,VWS V14.01,2013-05-21 13:45:00,
2013-05-21 08:48:00,67.8,61.8,29.59,South,180,14.0,20.0,81,0.00,,BKN180,0.18,VWS V14.01,2013-05-21 13:48:00,
2013-05-21 08:50:00,67.8,61.8,29.59,North,360,14.0,20.0,81,0.00,,SCT250,0.18,VWS V14.01,2013-05-21 13:50:00,
2013-05-21 08:53:00,67.7,61.7,29.59,North,360,15.0,17.0,81,0.00,,BKN180,0.18,VWS V14.01,2013-05-21 13:53:00,
2013-05-21 08:55:00,67.7,61.7,29.59,North,360,15.0,17.0,81,0.00,,SCT250,0.18,VWS V14.01,2013-05-21 13:55:00,
2013-05-21 08:58:00,67.9,61.9,29.59,South,184,4.0,17.0,81,0.00,,BKN180,0.18,VWS V14.01,2013-05-21 13:58:00,
2013-05-21 09:00:00,67.9,61.9,29.59,South,184,4.0,17.0,81,0.00,,SCT250,0.18,VWS V14.01,2013-05-21 14:00:00,
2013-05-21 09:04:00,68.1,61.7,29.59,North,360,6.0,17.0,80,0.00,,BKN250,0.18,VWS V14.01,2013-05-21 14:04:00,
2013-05-21 09:05:00,68.1,61.7,29.59,SW,228,8.0,17.0,80,0.00,,SCT250,0.18,VWS V14.01,2013-05-21 14:05:00,
2013-05-21 09:09:00,68.3,61.9,29.59,SW,220,3.0,15.0,80,0.00,,BKN250,0.18,VWS V14.01,2013-05-21 14:09:00,
2013-05-21 09:10:00,68.3,61.9,29.59,SSW,194,3.0,16.0,80,0.00,,SCT250,0.18,VWS V14.01,2013-05-21 14:10:00,
2013-05-21 09:14:00,68.8,62.4,29.59,SW,235,1.0,9.0,80,0.00,,BKN250,0.18,VWS V14.01,2013-05-21 14:14:00,
2013-05-21 09:15:00,68.8,62.4,29.59,SSE,162,2.0,10.0,80,0.00,,SCT250,0.18,VWS V14.01,2013-05-21 14:15:00,
2013-05-21 09:19:00,69.3,62.5,29.59,North,360,11.0,13.0,79,0.00,,BKN250,0.18,VWS V14.01,2013-05-21 14:19:00,
2013-05-21 09:20:00,69.3,62.2,29.59,SSW,194,8.0,13.0,78,0.00,,SCT250,0.18,VWS V14.01,2013-05-21 14:20:00,
2013-05-21 09:24:00,69.9,62.7,29.59,South,181,3.0,10.0,78,0.00,,BKN250,0.18,VWS V14.01,2013-05-21 14:24:00,
2013-05-21 09:25:00,69.8,62.6,29.59,South,188,7.0,12.0,78,0.00,,SCT250,0.18,VWS V14.01,2013-05-21 14:25:00,
2013-05-21 09:29:00,69.9,62.0,29.59,North,360,11.0,18.0,76,0.00,,BKN250,0.18,VWS V14.01,2013-05-21 14:29:00,
2013-05-21 09:30:00,69.9,62.0,29.59,North,360,8.0,18.0,76,0.00,,SCT250,0.18,VWS V14.01,2013-05-21 14:30:00,
2013-05-21 09:34:00,69.9,62.4,29.59,North,360,10.0,14.0,77,0.00,,BKN250,0.18,VWS V14.01,2013-05-21 14:34:00,
2013-05-21 09:35:00,69.9,62.4,29.59,SW,224,11.0,14.0,77,0.00,,SCT250,0.18,VWS V14.01,2013-05-21 14:35:00,
2013-05-21 09:39:00,70.0,62.1,29.59,North,360,11.0,15.0,76,0.00,,BKN250,0.18,VWS V14.01,2013-05-21 14:39:00,
2013-05-21 09:40:00,70.0,62.1,29.59,South,180,8.0,15.0,76,0.00,,SCT250,0.18,VWS V14.01,2013-05-21 14:40:00,
2013-05-21 09:44:00,70.4,62.8,29.59,SSW,205,9.0,15.0,77,0.00,,BKN250,0.18,VWS V14.01,2013-05-21 14:44:00,
2013-05-21 09:45:00,70.3,62.8,29.59,South,181,0.0,15.0,77,0.00,,SCT250,0.18,VWS V14.01,2013-05-21 14:45:00,
2013-05-21 09:49:00,70.9,62.6,29.59,SSW,207,10.0,14.0,75,0.00,,BKN250,0.18,VWS V14.01,2013-05-21 14:49:00,
2013-05-21 09:50:00,71.0,62.7,29.59,SSW,213,8.0,14.0,75,0.00,,SCT250,0.18,VWS V14.01,2013-05-21 14:50:00,
2013-05-21 09:54:00,71.2,62.9,29.59,SSW,194,6.0,14.0,75,0.00,,BKN250,0.18,VWS V14.01,2013-05-21 14:54:00,
2013-05-21 09:55:00,71.2,63.3,29.59,SSW,206,8.0,16.0,76,0.00,,SCT250,0.18,VWS V14.01,2013-05-21 14:55:00,
2013-05-21 09:59:00,71.3,63.0,29.59,SSW,205,4.0,14.0,75,0.00,,BKN250,0.18,VWS V14.01,2013-05-21 14:59:00,
2013-05-21 10:00:00,71.3,62.6,29.59,SSE,168,5.0,15.0,74,0.00,,SCT250,0.18,VWS V14.01,2013-05-21 15:00:00,
2013-05-21 10:04:00,71.9,63.5,29.59,South,184,0.0,10.0,75,0.00,,BKN250,0.18,VWS V14.01,2013-05-21 15:04:00,
2013-05-21 10:05:00,71.8,63.5,29.59,SW,226,4.0,10.0,75,0.00,,SCT250,0.18,VWS V14.01,2013-05-21 15:05:00,
2013-05-21 10:09:00,72.2,63.1,29.58,North,360,12.0,12.0,73,0.00,,BKN250,0.18,VWS V14.01,2013-05-21 15:09:00,
2013-05-21 10:10:00,72.2,63.1,29.58,South,183,4.0,11.0,73,0.00,,SCT250,0.18,VWS V14.01,2013-05-21 15:10:00,
2013-05-21 10:15:00,72.1,63.0,29.58,SSW,201,0.0,13.0,73,0.00,,BKN250,0.18,VWS V14.01,2013-05-21 15:15:00,
2013-05-21 10:20:00,72.4,62.9,29.58,SW,221,5.0,13.0,72,0.00,,BKN250,0.18,VWS V14.01,2013-05-21 15:20:00,
2013-05-21 10:25:00,72.2,63.1,29.58,North,360,5.0,14.0,73,0.00,,BKN250,0.18,VWS V14.01,2013-05-21 15:25:00,
2013-05-21 10:30:00,72.7,63.5,29.58,SW,219,12.0,14.0,73,0.00,,BKN250,0.18,VWS V14.01,2013-05-21 15:30:00,
2013-05-21 10:35:00,72.9,63.8,29.58,North,360,5.0,10.0,73,0.00,,BKN250,0.18,VWS V14.01,2013-05-21 15:35:00,
2013-05-21 10:40:00,73.3,63.3,29.58,South,173,4.0,13.0,71,0.00,,BKN250,0.18,VWS V14.01,2013-05-21 15:40:00,
2013-05-21 10:45:00,73.1,62.3,29.58,South,169,6.0,13.0,69,0.00,,BKN250,0.18,VWS V14.01,2013-05-21 15:45:00,
2013-05-21 10:50:00,73.1,63.2,29.58,SW,217,5.0,10.0,71,0.00,,BKN250,0.18,VWS V14.01,2013-05-21 15:50:00,
2013-05-21 10:55:00,72.8,62.9,29.58,West,266,3.0,7.0,71,0.00,,BKN250,0.18,VWS V14.01,2013-05-21 15:55:00,
2013-05-21 11:00:00,70.8,59.3,29.58,ESE,102,0.0,6.0,67,0.00,,BKN250,0.18,VWS V14.01,2013-05-21 16:00:00,
2013-05-21 11:05:00,66.7,57.0,29.58,East,85,3.0,5.0,71,0.00,,BKN250,0.18,VWS V14.01,2013-05-21 16:05:00,
2013-05-21 11:10:00,61.5,53.9,29.58,ESE,116,4.0,12.0,76,0.00,,BKN250,0.18,VWS V14.01,2013-05-21 16:10:00,
2013-05-21 11:15:00,60.6,55.1,29.58,ESE,123,0.0,7.0,82,0.00,,BKN250,0.18,VWS V14.01,2013-05-21 16:15:00,
2013-05-21 11:20:00,62.5,58.9,29.58,North,360,11.0,12.0,88,0.00,,BKN250,0.18,VWS V14.01,2013-05-21 16:20:00,
2013-05-21 11:25:00,70.1,64.7,29.58,SSW,209,0.0,14.0,83,0.00,,BKN250,0.18,VWS V14.01,2013-05-21 16:25:00,
2013-05-21 11:30:00,72.2,64.2,29.58,South,182,6.0,15.0,76,0.00,,SCT250,0.18,VWS V14.01,2013-05-21 16:30:00,
2013-05-21 11:31:00,73.0,64.6,29.58,South,188,11.0,15.0,75,0.00,,BKN250,0.18,VWS V14.01,2013-05-21 16:31:00,
2013-05-21 11:35:00,74.0,64.8,29.58,South,180,10.0,19.0,73,0.00,,SCT250,0.18,VWS V14.01,2013-05-21 16:35:00,
2013-05-21 11:36:00,74.2,64.2,29.58,North,360,5.0,18.0,71,0.00,,BKN250,0.18,VWS V14.01,2013-05-21 16:36:00,
2013-05-21 11:40:00,74.5,64.9,29.58,North,360,6.0,18.0,72,0.00,,SCT250,0.18,VWS V14.01,2013-05-21 16:40:00,
2013-05-21 11:41:00,74.7,64.7,29.59,WSW,252,3.0,14.0,71,0.00,,BKN250,0.18,VWS V14.01,2013-05-21 16:41:00,
2013-05-21 11:45:00,74.7,64.3,29.59,SSW,196,13.0,19.0,70,0.00,,SCT250,0.18,VWS V14.01,2013-05-21 16:45:00,
2013-05-21 11:46:00,74.7,64.3,29.59,North,360,14.0,19.0,70,0.00,,BKN250,0.18,VWS V14.01,2013-05-21 16:46:00,
2013-05-21 11:50:00,74.7,63.9,29.59,South,190,12.0,18.0,69,0.00,,SCT250,0.18,VWS V14.01,2013-05-21 16:50:00,
2013-05-21 11:51:00,74.3,63.9,29.59,North,360,12.0,20.0,70,0.00,,BKN250,0.18,VWS V14.01,2013-05-21 16:51:00,
2013-05-21 11:55:00,74.3,63.5,29.59,North,360,15.0,22.0,69,0.00,,SCT250,0.18,VWS V14.01,2013-05-21 16:55:00,
2013-05-21 11:56:00,74.1,63.7,29.58,North,360,11.0,22.0,70,0.00,,BKN250,0.18,VWS V14.01,2013-05-21 16:56:00,
2013-05-21 12:00:00,74.3,63.9,29.58,North,360,17.0,19.0,70,0.00,,SCT250,0.18,VWS V14.01,2013-05-21 17:00:00,
2013-05-21 12:01:00,74.4,64.0,29.58,North,360,16.0,18.0,70,0.00,,SCT024,0.18,VWS V14.01,2013-05-21 17:01:00,
2013-05-21 12:05:00,74.3,63.5,29.58,North,360,13.0,18.0,69,0.00,,SCT250,0.18,VWS V14.01,2013-05-21 17:05:00,
2013-05-21 12:06:00,74.3,63.5,29.58,SSW,199,16.0,18.0,69,0.00,,SCT024,0.18,VWS V14.01,2013-05-21 17:06:00,
2013-05-21 12:10:00,74.1,63.3,29.58,SW,227,11.0,18.0,69,0.00,,SCT250,0.18,VWS V14.01,2013-05-21 17:10:00,
2013-05-21 12:11:00,74.2,63.4,29.58,North,360,4.0,18.0,69,0.00,,SCT024,0.18,VWS V14.01,2013-05-21 17:11:00,
2013-05-21 12:15:00,74.2,63.8,29.58,North,360,11.0,16.0,70,0.00,,SCT250,0.18,VWS V14.01,2013-05-21 17:15:00,
2013-05-21 12:16:00,74.2,63.4,29.57,North,360,16.0,19.0,69,0.00,,SCT024,0.18,VWS V14.01,2013-05-21 17:16:00,
2013-05-21 12:20:00,74.1,62.9,29.57,South,182,6.0,21.0,68,0.00,,SCT250,0.18,VWS V14.01,2013-05-21 17:20:00,
2013-05-21 12:21:00,74.6,63.8,29.57,South,179,5.0,21.0,69,0.00,,SCT024,0.18,VWS V14.01,2013-05-21 17:21:00,
2013-05-21 12:25:00,74.8,64.0,29.57,South,173,10.0,15.0,69,0.00,,SCT250,0.18,VWS V14.01,2013-05-21 17:25:00,
2013-05-21 12:26:00,75.3,63.2,29.57,North,360,7.0,15.0,66,0.00,,SCT024,0.18,VWS V14.01,2013-05-21 17:26:00,
2013-05-21 12:30:00,75.6,63.5,29.57,South,181,5.0,15.0,66,0.00,,SCT250,0.18,VWS V14.01,2013-05-21 17:30:00,
2013-05-21 12:31:00,75.1,60.8,29.56,ESE,115,2.0,13.0,61,0.00,,SCT024,0.18,VWS V14.01,2013-05-21 17:31:00,
2013-05-21 12:35:00,73.7,59.9,29.56,ESE,113,8.0,11.0,62,0.00,,SCT250,0.18,VWS V14.01,2013-05-21 17:35:00,
2013-05-21 12:37:00,69.8,57.1,29.56,ESE,111,5.0,11.0,64,0.00,,SCT024,0.18,VWS V14.01,2013-05-21 17:37:00,
2013-05-21 12:40:00,67.3,56.4,29.56,SE,138,4.0,11.0,68,0.00,,SCT250,0.18,VWS V14.01,2013-05-21 17:40:00,
2013-05-21 12:42:00,64.4,55.9,29.56,SE,136,5.0,10.0,74,0.00,,SCT024,0.18,VWS V14.01,2013-05-21 17:42:00,
2013-05-21 12:45:00,63.5,55.8,29.56,SE,138,8.0,11.0,76,0.00,,SCT250,0.18,VWS V14.01,2013-05-21 17:45:00,
2013-05-21 12:47:00,62.2,56.0,29.56,SE,127,4.0,12.0,80,0.00,,SCT024,0.18,VWS V14.01,2013-05-21 17:47:00,
2013-05-21 12:50:00,62.0,56.1,29.56,SE,143,6.0,12.0,81,0.00,,SCT250,0.18,VWS V14.01,2013-05-21 17:50:00,
2013-05-21 12:52:00,61.9,56.3,29.56,SE,136,4.0,11.0,82,0.00,,SCT024,0.18,VWS V14.01,2013-05-21 17:52:00,
2013-05-21 12:55:00,61.8,56.2,29.56,SE,132,3.0,10.0,82,0.00,,SCT250,0.18,VWS V14.01,2013-05-21 17:55:00,
2013-05-21 12:57:00,61.6,56.4,29.56,SSE,151,7.0,16.0,83,0.00,,SCT024,0.18,VWS V14.01,2013-05-21 17:57:00,
2013-05-21 13:00:00,61.3,56.1,29.55,ESE,123,12.0,14.0,83,0.00,,SCT250,0.18,VWS V14.01,2013-05-21 18:00:00,
2013-05-21 13:02:00,60.5,55.7,29.56,SE,136,7.0,16.0,84,0.00,,SCT250,0.18,VWS V14.01,2013-05-21 18:02:00,
2013-05-21 13:05:00,60.3,55.5,29.56,SE,140,5.0,16.0,84,0.00,,SCT250,0.18,VWS V14.01,2013-05-21 18:05:00,
2013-05-21 13:07:00,60.3,56.1,29.56,SSE,148,4.0,16.0,86,0.00,,SCT250,0.18,VWS V14.01,2013-05-21 18:07:00,
2013-05-21 13:10:00,60.4,56.2,29.56,SE,126,6.0,16.0,86,0.00,,SCT250,0.18,VWS V14.01,2013-05-21 18:10:00,
2013-05-21 13:12:00,60.8,56.9,29.56,SE,138,4.0,13.0,87,0.00,,SCT250,0.18,VWS V14.01,2013-05-21 18:12:00,
2013-05-21 13:15:00,61.1,57.2,29.56,South,169,5.0,13.0,87,0.00,,SCT250,0.18,VWS V14.01,2013-05-21 18:15:00,
2013-05-21 13:17:00,61.7,57.5,29.56,SSE,155,4.0,11.0,86,0.00,,SCT250,0.18,VWS V14.01,2013-05-21 18:17:00,
2013-05-21 13:20:00,61.8,57.2,29.56,SE,129,0.0,11.0,85,0.00,,SCT250,0.18,VWS V14.01,2013-05-21 18:20:00,
2013-05-21 13:22:00,62.1,57.2,29.56,SE,139,7.0,9.0,84,0.00,,SCT250,0.18,VWS V14.01,2013-05-21 18:22:00,
2013-05-21 13:25:00,62.1,57.2,29.56,SE,137,5.0,9.0,84,0.00,,SCT250,0.18,VWS V14.01,2013-05-21 18:25:00,
2013-05-21 13:27:00,61.3,55.4,29.56,SE,140,10.0,11.0,81,0.00,,SCT250,0.18,VWS V14.01,2013-05-21 18:27:00,
2013-05-21 13:30:00,61.0,55.5,29.56,SE,136,5.0,11.0,82,0.00,,SCT250,0.18,VWS V14.01,2013-05-21 18:30:00,
2013-05-21 13:32:00,60.9,56.4,29.56,SE,135,6.0,11.0,85,0.00,,SCT250,0.18,VWS V14.01,2013-05-21 18:32:00,
2013-05-21 13:35:00,60.9,56.4,29.56,SE,143,4.0,12.0,85,0.00,,SCT250,0.18,VWS V14.01,2013-05-21 18:35:00,
2013-05-21 13:37:00,60.5,55.3,29.56,SE,126,6.0,12.0,83,0.00,,SCT250,0.18,VWS V14.01,2013-05-21 18:37:00,
2013-05-21 13:40:00,60.3,55.1,29.56,ESE,121,8.0,12.0,83,0.00,,SCT250,0.18,VWS V14.01,2013-05-21 18:40:00,
2013-05-21 13:42:00,59.0,54.2,29.56,SE,128,5.0,14.0,84,0.00,,SCT250,0.18,VWS V14.01,2013-05-21 18:42:00,
2013-05-21 13:45:00,58.7,54.2,29.56,ESE,121,7.0,14.0,85,0.00,,SCT250,0.18,VWS V14.01,2013-05-21 18:45:00,
2013-05-21 13:48:00,58.1,53.9,29.56,ESE,121,13.0,13.0,86,0.00,,SCT250,0.18,VWS V14.01,2013-05-21 18:48:00,
2013-05-21 13:50:00,58.3,54.5,29.56,SE,128,8.0,16.0,87,0.00,,SCT250,0.18,VWS V14.01,2013-05-21 18:50:00,
2013-05-21 13:53:00,59.2,56.3,29.56,SE,129,7.0,13.0,90,0.00,,SCT250,0.18,VWS V14.01,2013-05-21 18:53:00,
2013-05-21 13:55:00,59.6,56.7,29.56,SE,134,2.0,11.0,90,0.00,,SCT250,0.18,VWS V14.01,2013-05-21 18:55:00,
2013-05-21 13:58:00,59.8,55.3,29.56,SE,136,5.0,12.0,85,0.00,,SCT250,0.18,VWS V14.01,2013-05-21 18:58:00,
2013-05-21 14:00:00,59.6,55.1,29.56,SE,132,3.0,12.0,85,0.00,,SCT250,0.18,VWS V14.01,2013-05-21 19:00:00,
2013-05-21 14:03:00,58.9,54.7,29.56,SE,130,7.0,14.0,86,0.00,,BKN250,0.18,VWS V14.01,2013-05-21 19:03:00,
2013-05-21 14:05:00,58.9,54.7,29.56,SE,132,9.0,14.0,86,0.00,,SCT250,0.18,VWS V14.01,2013-05-21 19:05:00,
2013-05-21 14:08:00,59.4,55.5,29.55,SE,128,5.0,11.0,87,0.00,,BKN250,0.18,VWS V14.01,2013-05-21 19:08:00,
2013-05-21 14:10:00,59.5,55.6,29.55,ESE,119,9.0,11.0,87,0.00,,SCT250,0.18,VWS V14.01,2013-05-21 19:10:00,
2013-05-21 14:13:00,59.8,55.6,29.55,SE,127,7.0,10.0,86,0.00,,BKN250,0.18,VWS V14.01,2013-05-21 19:13:00,
2013-05-21 14:15:00,59.9,56.0,29.55,ESE,115,3.0,10.0,87,0.00,,SCT250,0.18,VWS V14.01,2013-05-21 19:15:00,
2013-05-21 14:18:00,60.9,56.0,29.55,ESE,121,3.0,13.0,84,0.00,,BKN250,0.18,VWS V14.01,2013-05-21 19:18:00,
2013-05-21 14:20:00,60.9,56.0,29.55,SE,128,7.0,13.0,84,0.00,,SCT250,0.18,VWS V14.01,2013-05-21 19:20:00,
2013-05-21 14:23:00,59.8,54.6,29.55,SE,138,3.0,15.0,83,0.00,,BKN250,0.18,VWS V14.01,2013-05-21 19:23:00,
2013-05-21 14:25:00,59.7,54.5,29.55,SE,140,8.0,15.0,83,0.00,,SCT250,0.18,VWS V14.01,2013-05-21 19:25:00,
2013-05-21 14:28:00,58.6,54.8,29.55,SSE,152,3.0,14.0,87,0.00,,BKN250,0.18,VWS V14.01,2013-05-21 19:28:00,
2013-05-21 14:30:00,58.6,54.8,29.55,SE,136,5.0,14.0,87,0.00,,SCT250,0.18,VWS V14.01,2013-05-21 19:30:00,
2013-05-21 14:33:00,58.5,55.0,29.55,SE,145,8.0,12.0,88,0.00,,BKN250,0.18,VWS V14.01,2013-05-21 19:33:00,
2013-05-21 14:35:00,58.4,54.9,29.55,SSE,148,4.0,12.0,88,0.00,,SCT250,0.18,VWS V14.01,2013-05-21 19:35:00,
2013-05-21 14:38:00,58.7,55.5,29.55,SE,139,6.0,9.0,89,0.00,,BKN250,0.18,VWS V14.01,2013-05-21 19:38:00,
2013-05-21 14:40:00,58.7,55.5,29.55,SE,139,2.0,9.0,89,0.00,,SCT250,0.18,VWS V14.01,2013-05-21 19:40:00,
2013-05-21 14:43:00,59.6,55.4,29.55,SSE,148,4.0,11.0,86,0.00,,BKN250,0.18,VWS V14.01,2013-05-21 19:43:00,
2013-05-21 14:45:00,59.6,55.4,29.55,SE,144,3.0,11.0,86,0.00,,SCT250,0.18,VWS V14.01,2013-05-21 19:45:00,
2013-05-21 14:48:00,60.2,56.3,29.55,SE,142,4.0,9.0,87,0.00,,BKN250,0.18,VWS V14.01,2013-05-21 19:48:00,
2013-05-21 14:50:00,60.2,56.3,29.55,SE,142,4.0,9.0,87,0.00,,SCT250,0.18,VWS V14.01,2013-05-21 19:50:00,
2013-05-21 14:53:00,61.3,56.4,29.55,SSE,153,7.0,9.0,84,0.00,,BKN250,0.18,VWS V14.01,2013-05-21 19:53:00,
2013-05-21 14:55:00,61.3,56.4,29.55,SSE,153,7.0,9.0,84,0.00,,SCT250,0.18,VWS V14.01,2013-05-21 19:55:00,
2013-05-21 14:59:00,62.4,57.8,29.55,SSE,166,17.0,22.0,85,0.00,,BKN250,0.18,VWS V14.01,2013-05-21 19:59:00,
2013-05-21 15:00:00,62.4,57.8,29.55,SSE,166,17.0,22.0,85,0.00,,SCT250,0.18,VWS V14.01,2013-05-21 20:00:00,
2013-05-21 15:04:00,74.9,61.0,29.55,North,360,9.0,27.0,62,0.00,,BKN095,0.18,VWS V14.01,2013-05-21 20:04:00,
2013-05-21 15:05:00,74.5,61.5,29.55,North,360,11.0,27.0,64,0.00,,SCT250,0.18,VWS V14.01,2013-05-21 20:05:00,
2013-05-21 15:09:00,78.4,60.9,29.55,South,176,2.0,21.0,55,0.00,,BKN095,0.18,VWS V14.01,2013-05-21 20:09:00,
2013-05-21 15:10:00,78.2,60.7,29.55,North,360,3.0,21.0,55,0.00,,SCT250,0.18,VWS V14.01,2013-05-21 20:10:00,
2013-05-21 15:14:00,78.7,60.2,29.55,North,360,9.0,31.0,53,0.00,,BKN095,0.18,VWS V14.01,2013-05-21 20:14:00,
2013-05-21 15:15:00,78.7,60.2,29.55,SSE,167,15.0,31.0,53,0.00,,SCT250,0.18,VWS V14.01,2013-05-21 20:15:00,
2013-05-21 15:19:00,79.5,60.3,29.54,North,360,5.0,26.0,52,0.00,,BKN095,0.18,VWS V14.01,2013-05-21 20:19:00,
2013-05-21 15:20:00,79.3,60.2,29.54,North,360,11.0,26.0,52,0.00,,SCT250,0.18,VWS V14.01,2013-05-21 20:20:00,
2013-05-21 15:24:00,80.7,60.9,29.54,SE,139,4.0,28.0,51,0.00,,BKN095,0.18,VWS V14.01,2013-05-21 20:24:00,
2013-05-21 15:25:00,80.6,60.8,29.54,North,360,3.0,28.0,51,0.00,,SCT250,0.18,VWS V14.01,2013-05-21 20:25:00,
2013-05-21 15:29:00,79.8,60.1,29.54,North,360,21.0,29.0,51,0.00,,BKN095,0.18,VWS V14.01,2013-05-21 20:29:00,
2013-05-21 15:30:00,79.9,60.2,29.54,North,360,17.0,29.0,51,0.00,,SCT250,0.18,VWS V14.01,2013-05-21 20:30:00,
2013-05-21 15:34:00,79.5,60.3,29.54,North,360,23.0,26.0,52,0.00,,BKN095,0.18,VWS V14.01,2013-05-21 20:34:00,
2013-05-21 15:35:00,79.6,60.4,29.55,SSE,167,5.0,21.0,52,0.00,,SCT250,0.18,VWS V14.01,2013-05-21 20:35:00,
2013-05-21 15:39:00,78.5,59.4,29.55,North,360,14.0,26.0,52,0.00,,BKN095,0.18,VWS V14.01,2013-05-21 20:39:00,
2013-05-21 15:40:00,78.7,59.1,29.55,SW,222,14.0,27.0,51,0.00,,SCT250,0.18,VWS V14.01,2013-05-21 20:40:00,
2013-05-21 15:44:00,78.3,59.8,29.55,North,360,19.0,27.0,53,0.00,,BKN095,0.18,VWS V14.01,2013-05-21 20:44:00,
2013-05-21 15:45:00,78.3,59.8,29.54,SSW,198,17.0,25.0,53,0.00,,SCT250,0.18,VWS V14.01,2013-05-21 20:45:00,
2013-05-21 15:50:00,78.3,60.3,29.55,South,189,4.0,27.0,54,0.00,,BKN095,0.18,VWS V14.01,2013-05-21 20:50:00,
2013-05-21 15:55:00,78.4,60.4,29.55,SW,225,3.0,17.0,54,0.00,,BKN095,0.18,VWS V14.01,2013-05-21 20:55:00,
2013-05-21 16:00:00,78.5,60.0,29.55,North,360,12.0,21.0,53,0.00,,BKN095,0.18,VWS V14.01,2013-05-21 21:00:00,
2013-05-21 16:05:00,78.6,59.5,29.54,SW,229,4.0,21.0,52,0.00,,BKN250,0.18,VWS V14.01,2013-05-21 21:05:00,
2013-05-21 16:10:00,78.8,59.2,29.54,SW,217,12.0,19.0,51,0.00,,BKN250,0.18,VWS V14.01,2013-05-21 21:10:00,
2013-05-21 16:15:00,79.2,59.5,29.54,North,360,2.0,18.0,51,0.00,,BKN250,0.18,VWS V14.01,2013-05-21 21:15:00,
2013-05-21 16:20:00,79.3,59.1,29.55,WNW,296,14.0,26.0,50,0.00,,BKN250,0.18,VWS V14.01,2013-05-21 21:20:00,
2013-05-21 16:25:00,79.6,58.8,29.54,SSW,213,5.0,26.0,49,0.00,,BKN250,0.18,VWS V14.01,2013-05-21 21:25:00,
2013-05-21 16:30:00,79.9,59.0,29.55,North,360,11.0,18.0,49,0.00,,BKN250,0.18,VWS V14.01,2013-05-21 21:30:00,
2013-05-21 16:35:00,79.8,60.1,29.55,South,183,7.0,16.0,51,0.00,,BKN250,0.18,VWS V14.01,2013-05-21 21:35:00,
2013-05-21 16:40:00,79.5,59.2,29.55,South,171,8.0,16.0,50,0.00,,BKN250,0.18,VWS V14.01,2013-05-21 21:40:00,
2013-05-21 16:45:00,79.1,60.0,29.55,South,172,8.0,18.0,52,0.00,,BKN250,0.18,VWS V14.01,2013-05-21 21:45:00,
2013-05-21 16:50:00,78.8,59.7,29.55,SSW,204,10.0,17.0,52,0.00,,SCT250,0.18,VWS V14.01,2013-05-21 21:50:00,
2013-05-21 16:51:00,78.5,59.4,29.55,North,360,12.0,17.0,52,0.00,,BKN250,0.18,VWS V14.01,2013-05-21 21:51:00,
2013-05-21 16:55:00,78.3,59.2,29.55,North,360,13.0,18.0,52,0.00,,SCT250,0.18,VWS V14.01,2013-05-21 21:55:00,
2013-05-21 16:56:00,78.3,59.8,29.55,South,183,4.0,18.0,53,0.00,,BKN250,0.18,VWS V14.01,2013-05-21 21:56:00,
2013-05-21 17:00:00,78.4,59.3,29.55,North,360,13.0,16.0,52,0.00,,SCT250,0.18,VWS V14.01,2013-05-21 22:00:00,
2013-05-21 17:01:00,78.3,59.2,29.55,SW,232,7.0,17.0,52,0.00,,BKN250,0.18,VWS V14.01,2013-05-21 22:01:00,
2013-05-21 17:05:00,78.2,59.2,29.55,North,360,16.0,18.0,52,0.00,,SCT250,0.18,VWS V14.01,2013-05-21 22:05:00,
2013-05-21 17:06:00,78.2,59.7,29.55,North,360,12.0,18.0,53,0.00,,BKN250,0.18,VWS V14.01,2013-05-21 22:06:00,
2013-05-21 17:10:00,78.2,59.7,29.56,South,190,14.0,16.0,53,0.00,,SCT250,0.18,VWS V14.01,2013-05-21 22:10:00,
2013-05-21 17:11:00,78.2,59.2,29.56,SSE,150,8.0,18.0,52,0.00,,BKN250,0.18,VWS V14.01,2013-05-21 22:11:00,
2013-05-21 17:15:00,78.1,59.1,29.56,North,360,8.0,22.0,52,0.00,,SCT250,0.18,VWS V14.01,2013-05-21 22:15:00,
2013-05-21 17:16:00,78.0,59.0,29.56,SSE,168,21.0,24.0,52,0.00,,BKN250,0.18,VWS V14.01,2013-05-21 22:16:00,
2013-05-21 17:20:00,78.0,59.0,29.56,SSW,192,14.0,24.0,52,0.00,,SCT250,0.18,VWS V14.01,2013-05-21 22:20:00,
2013-05-21 17:21:00,78.1,59.1,29.56,North,360,0.0,22.0,52,0.00,,BKN250,0.18,VWS V14.01,2013-05-21 22:21:00,
2013-05-21 17:25:00,78.4,59.3,29.56,North,360,6.0,16.0,52,0.00,,SCT250,0.18,VWS V14.01,2013-05-21 22:25:00,
2013-05-21 17:26:00,78.8,58.6,29.56,SW,221,6.0,18.0,50,0.00,,BKN250,0.18,VWS V14.01,2013-05-21 22:26:00,
2013-05-21 17:30:00,78.8,58.6,29.56,SSW,204,12.0,20.0,50,0.00,,SCT250,0.18,VWS V14.01,2013-05-21 22:30:00,
2013-05-21 17:31:00,78.7,58.0,29.56,North,360,8.0,20.0,49,0.00,,BKN250,0.18,VWS V14.01,2013-05-21 22:31:00,
2013-05-21 17:35:00,78.6,58.4,29.56,North,360,11.0,14.0,50,0.00,,SCT250,0.18,VWS V14.01,2013-05-21 22:35:00,
2013-05-21 17:36:00,78.8,58.6,29.56,SSW,209,0.0,16.0,50,0.00,,BKN250,0.18,VWS V14.01,2013-05-21 22:36:00,
2013-05-21 17:40:00,79.1,58.3,29.56,South,185,11.0,17.0,49,0.00,,SCT250,0.18,VWS V14.01,2013-05-21 22:40:00,
2013-05-21 17:41:00,79.3,58.5,29.56,SSW,195,12.0,21.0,49,0.00,,BKN250,0.18,VWS V14.01,2013-05-21 22:41:00,
2013-05-21 17:45:00,79.4,58.0,29.56,North,360,15.0,21.0,48,0.00,,SCT250,0.18,VWS V14.01,2013-05-21 22:45:00,
2013-05-21 17:46:00,79.6,58.8,29.56,SE,146,4.0,21.0,49,0.00,,BKN250,0.18,VWS V14.01,2013-05-21 22:46:00,
2013-05-21 17:50:00,79.8,58.4,29.56,SW,221,18.0,19.0,48,0.00,,SCT250,0.18,VWS V14.01,2013-05-21 22:50:00,
2013-05-21 17:51:00,79.5,58.1,29.56,SSE,167,14.0,19.0,48,0.00,,BKN250,0.18,VWS V14.01,2013-05-21 22:51:00,
2013-05-21 17:55:00,79.2,57.8,29.56,SSW,207,6.0,18.0,48,0.00,,SCT250,0.18,VWS V14.01,2013-05-21 22:55:00,
2013-05-21 17:57:00,79.0,57.7,29.55,SSW,207,10.0,16.0,48,0.00,,BKN250,0.18,VWS V14.01,2013-05-21 22:57:00,
2013-05-21 18:00:00,78.9,57.6,29.55,SSW,200,14.0,18.0,48,0.00,,SCT250,0.18,VWS V14.01,2013-05-21 23:00:00,
2013-05-21 18:02:00,79.1,57.2,29.55,North,360,12.0,20.0,47,0.00,,BKN250,0.18,VWS V14.01,2013-05-21 23:02:00,
2013-05-21 18:05:00,79.1,57.8,29.55,North,360,9.0,20.0,48,0.00,,SCT250,0.18,VWS V14.01,2013-05-21 23:05:00,
2013-05-21 18:07:00,79.2,57.2,29.55,SW,233,12.0,18.0,47,0.00,,BKN250,0.18,VWS V14.01,2013-05-21 23:07:00,
2013-05-21 18:10:00,79.2,57.8,29.55,SSE,168,9.0,18.0,48,0.00,,SCT250,0.18,VWS V14.01,2013-05-21 23:10:00,
2013-05-21 18:12:00,79.3,57.9,29.55,North,360,7.0,16.0,48,0.00,,BKN250,0.18,VWS V14.01,2013-05-21 23:12:00,
2013-05-21 18:15:00,79.4,58.0,29.55,South,184,0.0,16.0,48,0.00,,SCT250,0.18,VWS V14.01,2013-05-21 23:15:00,
2013-05-21 18:17:00,79.4,58.0,29.55,SW,219,10.0,11.0,48,0.00,,BKN250,0.18,VWS V14.01,2013-05-21 23:17:00,
2013-05-21 18:20:00,79.4,58.6,29.55,North,360,6.0,14.0,49,0.00,,SCT250,0.18,VWS V14.01,2013-05-21 23:20:00,
2013-05-21 18:22:00,79.4,58.6,29.55,North,360,3.0,9.0,49,0.00,,BKN250,0.18,VWS V14.01,2013-05-21 23:22:00,
2013-05-21 18:25:00,79.4,58.6,29.55,North,360,8.0,12.0,49,0.00,,SCT250,0.18,VWS V14.01,2013-05-21 23:25:00,
2013-05-21 18:27:00,79.4,57.4,29.55,SW,222,6.0,12.0,47,0.00,,BKN250,0.18,VWS V14.01,2013-05-21 23:27:00,
2013-05-21 18:30:00,79.4,57.4,29.55,SW,215,8.0,12.0,47,0.00,,SCT250,0.18,VWS V14.01,2013-05-21 23:30:00,
2013-05-21 18:32:00,79.2,57.8,29.55,SSW,213,3.0,14.0,48,0.00,,BKN250,0.18,VWS V14.01,2013-05-21 23:32:00,
2013-05-21 18:35:00,79.1,57.8,29.55,South,179,5.0,15.0,48,0.00,,SCT250,0.18,VWS V14.01,2013-05-21 23:35:00,
2013-05-21 18:37:00,78.9,57.6,29.55,SSW,210,10.0,19.0,48,0.00,,BKN250,0.18,VWS V14.01,2013-05-21 23:37:00,
2013-05-21 18:40:00,78.8,57.5,29.55,South,181,0.0,13.0,48,0.00,,SCT250,0.18,VWS V14.01,2013-05-21 23:40:00,
2013-05-21 18:42:00,79.0,58.2,29.55,SW,225,0.0,9.0,49,0.00,,BKN250,0.18,VWS V14.01,2013-05-21 23:42:00,
2013-05-21 18:45:00,79.1,58.3,29.55,WSW,252,0.0,8.0,49,0.00,,SCT250,0.18,VWS V14.01,2013-05-21 23:45:00,
2013-05-21 18:47:00,79.2,58.4,29.55,West,264,3.0,9.0,49,0.00,,BKN250,0.18,VWS V14.01,2013-05-21 23:47:00,
2013-05-21 18:50:00,79.3,57.9,29.55,SW,225,3.0,11.0,48,0.00,,SCT250,0.18,VWS V14.01,2013-05-21 23:50:00,
2013-05-21 18:52:00,78.8,57.5,29.55,WSW,243,4.0,16.0,48,0.00,,BKN250,0.18,VWS V14.01,2013-05-21 23:52:00,
2013-05-21 18:55:00,78.7,57.4,29.55,West,269,0.0,16.0,48,0.00,,SCT250,0.18,VWS V14.01,2013-05-21 23:55:00,
2013-05-21 18:57:00,78.5,57.2,29.55,West,270,4.0,10.0,48,0.00,,BKN250,0.18,VWS V14.01,2013-05-21 23:57:00,
2013-05-21 19:00:00,78.5,57.8,29.55,West,279,7.0,10.0,49,0.00,,SCT250,0.18,VWS V14.01,2013-05-22 00:00:00,
2013-05-21 19:02:00,78.2,57.5,29.56,West,267,6.0,11.0,49,0.00,,SCT250,0.18,VWS V14.01,2013-05-22 00:02:00,
2013-05-21 19:05:00,78.2,57.5,29.56,WSW,241,0.0,11.0,49,0.00,,SCT250,0.18,VWS V14.01,2013-05-22 00:05:00,
2013-05-21 19:07:00,78.1,57.4,29.56,SW,224,0.0,12.0,49,0.00,,SCT250,0.18,VWS V14.01,2013-05-22 00:07:00,
2013-05-21 19:10:00,78.1,58.0,29.56,West,267,3.0,12.0,50,0.00,,SCT250,0.18,VWS V14.01,2013-05-22 00:10:00,
2013-05-21 19:13:00,77.6,57.5,29.57,SW,219,0.0,12.0,50,0.00,,SCT250,0.18,VWS V14.01,2013-05-22 00:13:00,
2013-05-21 19:15:00,77.6,58.1,29.57,SSW,207,0.0,12.0,51,0.00,,SCT250,0.18,VWS V14.01,2013-05-22 00:15:00,
2013-05-21 19:18:00,77.3,57.2,29.57,West,261,4.0,12.0,50,0.00,,SCT250,0.18,VWS V14.01,2013-05-22 00:18:00,
2013-05-21 19:20:00,77.2,57.7,29.57,West,269,3.0,12.0,51,0.00,,SCT250,0.18,VWS V14.01,2013-05-22 00:20:00,
2013-05-21 19:23:00,77.0,57.5,29.57,West,271,0.0,10.0,51,0.00,,SCT250,0.18,VWS V14.01,2013-05-22 00:23:00,
2013-05-21 19:25:00,77.0,57.5,29.57,West,268,2.0,10.0,51,0.00,,SCT250,0.18,VWS V14.01,2013-05-22 00:25:00,
2013-05-21 19:28:00,76.9,57.4,29.57,SSW,211,2.0,13.0,51,0.00,,SCT250,0.18,VWS V14.01,2013-05-22 00:28:00,
2013-05-21 19:30:00,76.9,57.4,29.57,West,270,2.0,11.0,51,0.00,,SCT250,0.18,VWS V14.01,2013-05-22 00:30:00,
2013-05-21 19:33:00,76.6,57.7,29.57,WSW,248,5.0,12.0,52,0.00,,SCT250,0.18,VWS V14.01,2013-05-22 00:33:00,
2013-05-21 19:35:00,76.6,57.7,29.57,West,266,7.0,12.0,52,0.00,,SCT250,0.18,VWS V14.01,2013-05-22 00:35:00,
2013-05-21 19:38:00,76.3,57.4,29.58,WSW,257,3.0,9.0,52,0.00,,SCT250,0.18,VWS V14.01,2013-05-22 00:38:00,
2013-05-21 19:40:00,76.3,57.4,29.57,SW,218,3.0,9.0,52,0.00,,SCT250,0.18,VWS V14.01,2013-05-22 00:40:00,
2013-05-21 19:43:00,76.2,57.8,29.58,West,259,3.0,5.0,53,0.00,,SCT250,0.18,VWS V14.01,2013-05-22 00:43:00,
2013-05-21 19:45:00,76.1,57.7,29.58,West,267,8.0,8.0,53,0.00,,SCT250,0.18,VWS V14.01,2013-05-22 00:45:00,
2013-05-21 19:48:00,75.9,57.6,29.58,West,266,4.0,10.0,53,0.00,,SCT250,0.18,VWS V14.01,2013-05-22 00:48:00,
2013-05-21 19:50:00,75.9,57.6,29.58,West,281,0.0,8.0,53,0.00,,SCT250,0.18,VWS V14.01,2013-05-22 00:50:00,
2013-05-21 19:53:00,75.7,57.4,29.58,West,260,4.0,9.0,53,0.00,,SCT250,0.18,VWS V14.01,2013-05-22 00:53:00,
2013-05-21 19:55:00,75.7,57.4,29.58,West,267,2.0,9.0,53,0.00,,SCT250,0.18,VWS V14.01,2013-05-22 00:55:00,
2013-05-21 19:58:00,75.4,57.1,29.58,SW,214,0.0,10.0,53,0.00,,SCT250,0.18,VWS V14.01,2013-05-22 00:58:00,
2013-05-21 20:00:00,75.4,57.1,29.58,WSW,251,0.0,10.0,53,0.00,,SCT250,0.18,VWS V14.01,2013-05-22 01:00:00,
2013-05-21 20:03:00,75.0,57.2,29.58,WSW,258,3.0,9.0,54,0.00,,SCT250,0.18,VWS V14.01,2013-05-22 01:03:00,
2013-05-21 20:05:00,75.0,57.2,29.58,WSW,258,2.0,9.0,54,0.00,,SCT250,0.18,VWS V14.01,2013-05-22 01:05:00,
2013-05-21 20:08:00,74.6,57.4,29.58,WSW,250,3.0,6.0,55,0.00,,SCT250,0.18,VWS V14.01,2013-05-22 01:08:00,
2013-05-21 20:10:00,74.6,57.4,29.58,WSW,248,0.0,6.0,55,0.00,,SCT250,0.18,VWS V14.01,2013-05-22 01:10:00,
2013-05-21 20:13:00,74.3,57.1,29.58,WSW,257,0.0,1.0,55,0.00,,SCT250,0.18,VWS V14.01,2013-05-22 01:13:00,
2013-05-21 20:15:00,74.3,57.1,29.58,WSW,257,0.0,0.0,55,0.00,,SCT250,0.18,VWS V14.01,2013-05-22 01:15:00,
2013-05-21 20:18:00,73.9,57.2,29.59,West,261,0.0,1.0,56,0.00,,SCT250,0.18,VWS V14.01,2013-05-22 01:18:00,
2013-05-21 20:20:00,73.9,57.2,29.59,West,261,0.0,1.0,56,0.00,,FEW250,0.18,VWS V14.01,2013-05-22 01:20:00,
2013-05-21 20:23:00,73.6,57.4,29.59,West,261,0.0,1.0,57,0.00,,SCT250,0.18,VWS V14.01,2013-05-22 01:23:00,
2013-05-21 20:25:00,73.6,57.4,29.59,West,261,0.0,1.0,57,0.00,,SCT250,0.18,VWS V14.01,2013-05-22 01:25:00,
2013-05-21 20:28:00,73.3,57.2,29.59,West,259,0.0,0.0,57,0.00,,SCT250,0.18,VWS V14.01,2013-05-22 01:28:00,
2013-05-21 20:30:00,73.3,57.2,29.59,West,259,0.0,0.0,57,0.00,,SCT250,0.18,VWS V14.01,2013-05-22 01:30:00,
2013-05-21 20:33:00,73.0,57.4,29.60,WSW,254,0.0,0.0,58,0.00,,SCT250,0.18,VWS V14.01,2013-05-22 01:33:00,
2013-05-21 20:35:00,73.0,57.4,29.60,WSW,254,0.0,0.0,58,0.00,,SCT250,0.18,VWS V14.01,2013-05-22 01:35:00,
2013-05-21 20:38:00,72.7,57.6,29.60,WSW,254,0.0,0.0,59,0.00,,SCT250,0.18,VWS V14.01,2013-05-22 01:38:00,
2013-05-21 20:40:00,72.7,57.6,29.60,WSW,254,0.0,0.0,59,0.00,,SCT250,0.18,VWS V14.01,2013-05-22 01:40:00,
2013-05-21 20:43:00,72.5,57.4,29.60,WSW,254,0.0,0.0,59,0.00,,SCT250,0.18,VWS V14.01,2013-05-22 01:43:00,
2013-05-21 20:45:00,72.5,57.4,29.60,WSW,254,0.0,0.0,59,0.00,,SCT250,0.18,VWS V14.01,2013-05-22 01:45:00,
2013-05-21 20:48:00,72.2,57.6,29.60,WSW,254,0.0,0.0,60,0.00,,SCT250,0.18,VWS V14.01,2013-05-22 01:48:00,
2013-05-21 20:50:00,72.2,57.6,29.60,WSW,254,0.0,0.0,60,0.00,,SCT250,0.18,VWS V14.01,2013-05-22 01:50:00,
2013-05-21 20:53:00,72.0,57.8,29.60,WSW,246,0.0,1.0,61,0.00,,SCT250,0.18,VWS V14.01,2013-05-22 01:53:00,
2013-05-21 20:55:00,72.0,57.8,29.60,WSW,246,0.0,1.0,61,0.00,,SCT250,0.18,VWS V14.01,2013-05-22 01:55:00,
2013-05-21 20:58:00,71.8,57.6,29.61,WSW,248,0.0,0.0,61,0.00,,SCT250,0.18,VWS V14.01,2013-05-22 01:58:00,
2013-05-21 21:00:00,71.8,57.6,29.61,WSW,248,0.0,0.0,61,0.00,,SCT250,0.18,VWS V14.01,2013-05-22 02:00:00,
2013-05-21 21:04:00,71.7,57.5,29.61,WSW,250,0.0,1.0,61,0.00,,BKN070,0.18,VWS V14.01,2013-05-22 02:04:00,
2013-05-21 21:05:00,71.7,57.5,29.61,WSW,250,0.0,1.0,61,0.00,,SCT250,0.18,VWS V14.01,2013-05-22 02:05:00,
2013-05-21 21:09:00,71.5,57.8,29.61,WSW,254,0.0,4.0,62,0.00,,BKN070,0.18,VWS V14.01,2013-05-22 02:09:00,
2013-05-21 21:10:00,71.5,57.8,29.61,WSW,254,2.0,4.0,62,0.00,,SCT250,0.18,VWS V14.01,2013-05-22 02:10:00,
2013-05-21 21:14:00,71.3,58.1,29.61,WSW,257,2.0,3.0,63,0.00,,BKN070,0.18,VWS V14.01,2013-05-22 02:14:00,
2013-05-21 21:15:00,71.3,58.1,29.61,WSW,257,1.0,3.0,63,0.00,,SCT250,0.18,VWS V14.01,2013-05-22 02:15:00,
2013-05-21 21:19:00,71.1,58.3,29.61,WNW,296,0.0,0.0,64,0.00,,BKN070,0.18,VWS V14.01,2013-05-22 02:19:00,
2013-05-21 21:20:00,71.1,58.3,29.61,WNW,297,0.0,2.0,64,0.00,,SCT250,0.18,VWS V14.01,2013-05-22 02:20:00,
2013-05-21 21:24:00,70.8,58.5,29.61,WNW,290,0.0,1.0,65,0.00,,BKN070,0.18,VWS V14.01,2013-05-22 02:24:00,
2013-05-21 21:25:00,70.9,58.6,29.61,WNW,290,0.0,1.0,65,0.00,,SCT250,0.18,VWS V14.01,2013-05-22 02:25:00,
2013-05-21 21:29:00,70.6,58.7,29.61,WNW,289,0.0,0.0,66,0.00,,BKN070,0.18,VWS V14.01,2013-05-22 02:29:00,
2013-05-21 21:30:00,70.6,58.3,29.61,WNW,289,0.0,0.0,65,0.00,,SCT250,0.18,VWS V14.01,2013-05-22 02:30:00,
2013-05-21 21:34:00,70.2,58.7,29.61,WNW,289,0.0,1.0,67,0.00,,BKN070,0.18,VWS V14.01,2013-05-22 02:34:00,
2013-05-21 21:35:00,70.3,58.4,29.60,WNW,288,0.0,1.0,66,0.00,,SCT250,0.18,VWS V14.01,2013-05-22 02:35:00,
2013-05-21 21:40:00,69.9,58.9,29.61,WNW,297,0.0,4.0,68,0.00,,BKN070,0.18,VWS V14.01,2013-05-22 02:40:00,
2013-05-21 21:45:00,69.7,59.1,29.61,WNW,303,0.0,0.0,69,0.00,,BKN070,0.18,VWS V14.01,2013-05-22 02:45:00,
2013-05-21 21:50:00,69.5,58.9,29.61,WNW,300,0.0,0.0,69,0.00,,BKN070,0.18,VWS V14.01,2013-05-22 02:50:00,
2013-05-21 21:55:00,69.3,59.1,29.61,WNW,300,0.0,0.0,70,0.00,,BKN070,0.18,VWS V14.01,2013-05-22 02:55:00,
2013-05-21 22:00:00,69.2,59.0,29.61,WNW,298,0.0,0.0,70,0.00,,BKN070,0.18,VWS V14.01,2013-05-22 03:00:00,
2013-05-21 22:05:00,69.0,59.2,29.62,WNW,296,0.0,0.0,71,0.00,,FEW250,0.18,VWS V14.01,2013-05-22 03:05:00,
2013-05-21 22:10:00,68.9,59.1,29.62,WNW,297,0.0,0.0,71,0.00,,FEW250,0.18,VWS V14.01,2013-05-22 03:10:00,
2013-05-21 22:15:00,68.7,58.9,29.62,WNW,296,0.0,0.0,71,0.00,,FEW250,0.18,VWS V14.01,2013-05-22 03:15:00,
2013-05-21 22:20:00,68.6,59.2,29.61,WNW,296,0.0,0.0,72,0.00,,FEW250,0.18,VWS V14.01,2013-05-22 03:20:00,
2013-05-21 22:25:00,68.5,59.1,29.62,WNW,297,0.0,0.0,72,0.00,,FEW250,0.18,VWS V14.01,2013-05-22 03:25:00,
2013-05-21 22:30:00,68.3,58.9,29.62,WNW,297,0.0,0.0,72,0.00,,FEW250,0.18,VWS V14.01,2013-05-22 03:30:00,
2013-05-21 22:35:00,68.1,59.1,29.62,WNW,296,0.0,0.0,73,0.00,,FEW250,0.18,VWS V14.01,2013-05-22 03:35:00,
2013-05-21 22:40:00,67.9,59.3,29.61,WNW,296,0.0,0.0,74,0.00,,FEW250,0.18,VWS V14.01,2013-05-22 03:40:00,
2013-05-21 22:45:00,67.6,59.0,29.61,WNW,297,0.0,0.0,74,0.00,,FEW250,0.18,VWS V14.01,2013-05-22 03:45:00,
2013-05-21 22:50:00,67.4,59.2,29.61,WNW,296,0.0,0.0,75,0.00,,FEW250,0.18,VWS V14.01,2013-05-22 03:50:00,
2013-05-21 22:55:00,67.3,59.1,29.60,WNW,296,0.0,0.0,75,0.00,,FEW250,0.18,VWS V14.01,2013-05-22 03:55:00,
2013-05-21 23:00:00,67.2,59.0,29.60,WNW,297,0.0,0.0,75,0.00,,SCT250,0.18,VWS V14.01,2013-05-22 04:00:00,
2013-05-21 23:01:00,67.0,59.2,29.60,WNW,296,0.0,0.0,76,0.00,,SCT250,0.18,VWS V14.01,2013-05-22 04:01:00,
2013-05-21 23:02:00,67.0,59.2,29.60,WNW,296,0.0,0.0,76,0.00,,SCT250,0.18,VWS V14.01,2013-05-22 04:02:00,
2013-05-21 23:03:00,66.9,59.1,29.60,WNW,296,0.0,0.0,76,0.00,,SCT250,0.18,VWS V14.01,2013-05-22 04:03:00,
2013-05-21 23:04:00,66.9,59.1,29.60,WNW,296,0.0,0.0,76,0.00,,SCT250,0.18,VWS V14.01,2013-05-22 04:04:00,
2013-05-21 23:05:00,66.9,59.1,29.60,WNW,296,0.0,0.0,76,0.00,,FEW250,0.18,VWS V14.01,2013-05-22 04:05:00,
2013-05-21 23:08:00,66.6,59.2,29.60,WNW,296,0.0,0.0,77,0.00,,SCT250,0.18,VWS V14.01,2013-05-22 04:08:00,
2013-05-21 23:10:00,66.5,59.1,29.60,WNW,297,0.0,0.0,77,0.00,,SCT250,0.18,VWS V14.01,2013-05-22 04:10:00,
2013-05-21 23:13:00,66.1,59.0,29.60,WNW,297,0.0,0.0,78,0.00,,SCT250,0.18,VWS V14.01,2013-05-22 04:13:00,
2013-05-21 23:15:00,66.1,59.0,29.60,WNW,297,0.0,0.0,78,0.00,,SCT250,0.18,VWS V14.01,2013-05-22 04:15:00,
2013-05-21 23:18:00,65.8,59.1,29.60,WNW,297,0.0,0.0,79,0.00,,SCT250,0.18,VWS V14.01,2013-05-22 04:18:00,
2013-05-21 23:20:00,65.8,59.1,29.60,WNW,297,0.0,0.0,79,0.00,,SCT250,0.18,VWS V14.01,2013-05-22 04:20:00,
2013-05-21 23:23:00,65.6,58.9,29.60,WNW,296,0.0,0.0,79,0.00,,SCT250,0.18,VWS V14.01,2013-05-22 04:23:00,
2013-05-21 23:25:00,65.6,58.9,29.60,WNW,296,0.0,0.0,79,0.00,,SCT250,0.18,VWS V14.01,2013-05-22 04:25:00,
2013-05-21 23:28:00,65.5,59.2,29.60,WNW,296,0.0,0.0,80,0.00,,SCT250,0.18,VWS V14.01,2013-05-22 04:28:00,
2013-05-21 23:30:00,65.5,59.2,29.60,WNW,296,0.0,0.0,80,0.00,,CLR,0.18,VWS V14.01,2013-05-22 04:30:00,
2013-05-21 23:33:00,65.4,59.1,29.60,WNW,296,0.0,0.0,80,0.00,,SCT250,0.18,VWS V14.01,2013-05-22 04:33:00,
2013-05-21 23:35:00,65.4,59.1,29.60,WNW,296,0.0,0.0,80,0.00,,SCT250,0.18,VWS V14.01,2013-05-22 04:35:00,
2013-05-21 23:38:00,65.4,58.7,29.60,WNW,297,0.0,0.0,79,0.00,,SCT250,0.18,VWS V14.01,2013-05-22 04:38:00,
2013-05-21 23:40:00,65.4,58.7,29.60,WNW,297,0.0,0.0,79,0.00,,SCT250,0.18,VWS V14.01,2013-05-22 04:40:00,
2013-05-21 23:43:00,65.2,58.5,29.60,WNW,296,0.0,0.0,79,0.00,,SCT250,0.18,VWS V14.01,2013-05-22 04:43:00,
2013-05-21 23:45:00,65.2,58.5,29.60,WNW,296,0.0,0.0,79,0.00,,SCT250,0.18,VWS V14.01,2013-05-22 04:45:00,
2013-05-21 23:48:00,64.9,58.2,29.60,NW,321,0.0,0.0,79,0.00,,SCT250,0.18,VWS V14.01,2013-05-22 04:48:00,
2013-05-21 23:50:00,64.9,58.2,29.60,NW,321,0.0,0.0,79,0.00,,SCT250,0.18,VWS V14.01,2013-05-22 04:50:00,
2013-05-21 23:53:00,64.7,58.0,29.60,NW,321,0.0,0.0,79,0.00,,SCT250,0.18,VWS V14.01,2013-05-22 04:53:00,
2013-05-21 23:55:00,64.7,58.0,29.60,NW,321,0.0,0.0,79,0.00,,SCT250,0.18,VWS V14.01,2013-05-22 04:55:00,
2013-05-21 23:59:00,64.7,58.0,29.60,NW,321,0.0,0.0,79,0.00,,SCT250,0.00,VWS V14.01,2013-05-22 04:59:00,